sensor_id;sensor_type;location;lat;lon;timestamp;P1;durP1;ratioP1;P2;durP2;ratioP2
43154;SDS011;34212;51.018;13.586;2023-05-29T05:01:10;6.00;;;2.50;;
43154;SDS011;34212;51.018;13.586;2023-05-29T05:06:16;6.18;;;2.90;;
43154;SDS011;34212;51.018;13.586;2023-05-29T05:11:18;4.80;;;2.97;;
43154;SDS011;34212;51.018;13.586;2023-05-29T05:16:22;4.90;;;3.40;;
43154;SDS011;34212;51.018;13.586;2023-05-29T05:21:24;6.60;;;3.07;;
43154;SDS011;34212;51.018;13.586;2023-05-29T05:26:27;7.22;;;3.65;;
43154;SDS011;34212;51.018;13.586;2023-05-29T05:31:29;5.57;;;3.58;;
43154;SDS011;34212;51.018;13.586;2023-05-29T05:36:33;5.25;;;3.45;;
43154;SDS011;34212;51.018;13.586;2023-05-29T05:41:42;6.90;;;3.63;;
43154;SDS011;34212;51.018;13.586;2023-05-29T05:46:45;4.95;;;3.53;;
43154;SDS011;34212;51.018;13.586;2023-05-29T05:51:47;7.90;;;3.20;;
43154;SDS011;34212;51.018;13.586;2023-05-29T05:56:51;6.88;;;3.60;;
43154;SDS011;34212;51.018;13.586;2023-05-29T06:01:53;6.33;;;3.87;;
43154;SDS011;34212;51.018;13.586;2023-05-29T06:06:54;8.10;;;4.27;;
43154;SDS011;34212;51.018;13.586;2023-05-29T06:11:56;8.93;;;4.40;;
43154;SDS011;34212;51.018;13.586;2023-05-29T06:16:58;6.05;;;4.32;;
43154;SDS011;34212;51.018;13.586;2023-05-29T06:21:59;6.72;;;3.97;;
43154;SDS011;34212;51.018;13.586;2023-05-29T06:27:04;7.57;;;4.38;;
43154;SDS011;34212;51.018;13.586;2023-05-29T06:32:07;6.15;;;4.60;;
43154;SDS011;34212;51.018;13.586;2023-05-29T06:37:09;6.83;;;4.30;;
43154;SDS011;34212;51.018;13.586;2023-05-29T06:42:11;7.68;;;4.30;;
43154;SDS011;34212;51.018;13.586;2023-05-29T06:47:16;9.88;;;4.18;;
43154;SDS011;34212;51.018;13.586;2023-05-29T06:52:19;6.50;;;3.90;;
43154;SDS011;34212;51.018;13.586;2023-05-29T06:57:40;5.20;;;3.50;;
43154;SDS011;34212;51.018;13.586;2023-05-29T07:02:42;9.80;;;3.33;;
43154;SDS011;34212;51.018;13.586;2023-05-29T07:07:45;6.65;;;3.13;;
43154;SDS011;34212;51.018;13.586;2023-05-29T07:12:47;7.28;;;3.00;;
43154;SDS011;34212;51.018;13.586;2023-05-29T07:17:49;7.45;;;3.30;;
43154;SDS011;34212;51.018;13.586;2023-05-29T07:22:55;3.42;;;2.47;;
43154;SDS011;34212;51.018;13.586;2023-05-29T07:27:57;6.50;;;2.57;;
43154;SDS011;34212;51.018;13.586;2023-05-29T07:33:14;5.20;;;2.75;;
43154;SDS011;34212;51.018;13.586;2023-05-29T07:38:17;10.93;;;2.58;;
43154;SDS011;34212;51.018;13.586;2023-05-29T07:43:21;3.55;;;2.40;;
43154;SDS011;34212;51.018;13.586;2023-05-29T07:48:30;5.07;;;2.40;;
43154;SDS011;34212;51.018;13.586;2023-05-29T07:53:33;5.38;;;2.20;;
43154;SDS011;34212;51.018;13.586;2023-05-29T07:58:35;4.00;;;2.60;;
43154;SDS011;34212;51.018;13.586;2023-05-29T08:03:37;4.50;;;2.83;;
43154;SDS011;34212;51.018;13.586;2023-05-29T08:08:45;4.65;;;2.88;;
43154;SDS011;34212;51.018;13.586;2023-05-29T08:13:47;4.65;;;2.50;;
43154;SDS011;34212;51.018;13.586;2023-05-29T08:18:53;4.80;;;2.80;;
43154;SDS011;34212;51.018;13.586;2023-05-29T08:23:56;6.28;;;3.00;;
43154;SDS011;34212;51.018;13.586;2023-05-29T08:28:57;9.60;;;3.63;;
43154;SDS011;34212;51.018;13.586;2023-05-29T08:33:59;5.30;;;2.88;;
43154;SDS011;34212;51.018;13.586;2023-05-29T08:39:01;5.15;;;3.33;;
43154;SDS011;34212;51.018;13.586;2023-05-29T08:44:03;4.82;;;2.85;;
43154;SDS011;34212;51.018;13.586;2023-05-29T08:49:06;4.93;;;3.28;;
43154;SDS011;34212;51.018;13.586;2023-05-29T08:54:11;9.88;;;3.75;;
43154;SDS011;34212;51.018;13.586;2023-05-29T08:59:15;5.28;;;3.72;;
43154;SDS011;34212;51.018;13.586;2023-05-29T09:04:18;6.80;;;4.05;;
43154;SDS011;34212;51.018;13.586;2023-05-29T09:09:20;6.30;;;4.05;;
43154;SDS011;34212;51.018;13.586;2023-05-29T09:14:38;8.43;;;3.90;;
43154;SDS011;34212;51.018;13.586;2023-05-29T09:19:43;7.57;;;3.90;;
43154;SDS011;34212;51.018;13.586;2023-05-29T09:24:47;5.15;;;3.90;;
43154;SDS011;34212;51.018;13.586;2023-05-29T09:29:49;6.20;;;3.60;;
43154;SDS011;34212;51.018;13.586;2023-05-29T09:34:51;3.63;;;2.78;;
43154;SDS011;34212;51.018;13.586;2023-05-29T09:39:55;4.88;;;2.85;;
43154;SDS011;34212;51.018;13.586;2023-05-29T09:44:59;9.10;;;3.00;;
43154;SDS011;34212;51.018;13.586;2023-05-29T09:50:01;9.10;;;3.13;;
43154;SDS011;34212;51.018;13.586;2023-05-29T09:55:02;4.85;;;3.10;;
43154;SDS011;34212;51.018;13.586;2023-05-29T10:00:04;5.05;;;3.45;;
43154;SDS011;34212;51.018;13.586;2023-05-29T10:05:15;9.10;;;3.72;;
43154;SDS011;34212;51.018;13.586;2023-05-29T10:10:17;6.30;;;3.30;;
43154;SDS011;34212;51.018;13.586;2023-05-29T10:15:19;5.60;;;3.50;;
43154;SDS011;34212;51.018;13.586;2023-05-29T10:20:24;6.70;;;3.20;;
43154;SDS011;34212;51.018;13.586;2023-05-29T10:25:29;5.90;;;3.70;;
43154;SDS011;34212;51.018;13.586;2023-05-29T10:36:14;6.40;;;3.33;;
43154;SDS011;34212;51.018;13.586;2023-05-29T10:51:43;5.15;;;2.97;;
43154;SDS011;34212;51.018;13.586;2023-05-29T10:56:51;10.13;;;2.60;;
43154;SDS011;34212;51.018;13.586;2023-05-29T11:01:54;2.95;;;2.33;;
43154;SDS011;34212;51.018;13.586;2023-05-29T11:06:57;6.00;;;3.15;;
43154;SDS011;34212;51.018;13.586;2023-05-29T11:12:21;7.43;;;2.80;;
43154;SDS011;34212;51.018;13.586;2023-05-29T11:27:50;3.97;;;2.25;;
43154;SDS011;34212;51.018;13.586;2023-05-29T11:32:55;8.27;;;3.00;;
43154;SDS011;34212;51.018;13.586;2023-05-29T11:38:03;8.70;;;3.15;;
43154;SDS011;34212;51.018;13.586;2023-05-29T11:43:05;4.90;;;2.90;;
43154;SDS011;34212;51.018;13.586;2023-05-29T11:48:06;6.07;;;3.00;;
43154;SDS011;34212;51.018;13.586;2023-05-29T11:53:08;4.38;;;2.85;;
43154;SDS011;34212;51.018;13.586;2023-05-29T11:58:09;4.85;;;2.75;;
43154;SDS011;34212;51.018;13.586;2023-05-29T12:03:11;4.95;;;2.90;;
43154;SDS011;34212;51.018;13.586;2023-05-29T12:08:13;4.88;;;2.75;;
43154;SDS011;34212;51.018;13.586;2023-05-29T12:13:14;5.32;;;2.85;;
43154;SDS011;34212;51.018;13.586;2023-05-29T12:18:18;6.70;;;3.00;;
43154;SDS011;34212;51.018;13.586;2023-05-29T12:23:20;6.30;;;3.08;;
43154;SDS011;34212;51.018;13.586;2023-05-29T12:28:22;4.00;;;2.53;;
43154;SDS011;34212;51.018;13.586;2023-05-29T12:33:33;7.03;;;3.65;;
43154;SDS011;34212;51.018;13.586;2023-05-29T12:38:45;5.18;;;2.70;;
43154;SDS011;34212;51.018;13.586;2023-05-29T12:43:52;7.50;;;3.10;;
43154;SDS011;34212;51.018;13.586;2023-05-29T12:48:54;4.55;;;2.83;;
43154;SDS011;34212;51.018;13.586;2023-05-29T12:53:57;3.78;;;3.03;;
43154;SDS011;34212;51.018;13.586;2023-05-29T12:58:59;3.60;;;2.75;;
43154;SDS011;34212;51.018;13.586;2023-05-29T13:04:01;7.85;;;3.97;;
43154;SDS011;34212;51.018;13.586;2023-05-29T13:09:03;6.47;;;3.13;;
43154;SDS011;34212;51.018;13.586;2023-05-29T13:14:05;3.92;;;2.92;;
43154;SDS011;34212;51.018;13.586;2023-05-29T13:19:07;6.25;;;3.08;;
43154;SDS011;34212;51.018;13.586;2023-05-29T13:24:08;5.55;;;2.75;;
43154;SDS011;34212;51.018;13.586;2023-05-29T13:29:10;6.65;;;3.03;;
43154;SDS011;34212;51.018;13.586;2023-05-29T13:34:11;6.25;;;3.05;;
43154;SDS011;34212;51.018;13.586;2023-05-29T13:39:13;4.50;;;2.75;;
43154;SDS011;34212;51.018;13.586;2023-05-29T13:44:14;4.95;;;3.03;;
43154;SDS011;34212;51.018;13.586;2023-05-29T13:49:16;6.13;;;3.25;;
43154;SDS011;34212;51.018;13.586;2023-05-29T13:54:18;6.32;;;3.10;;
43154;SDS011;34212;51.018;13.586;2023-05-29T13:59:19;8.35;;;3.53;;
43154;SDS011;34212;51.018;13.586;2023-05-29T14:04:21;5.50;;;3.13;;
43154;SDS011;34212;51.018;13.586;2023-05-29T14:14:28;6.20;;;3.20;;
43154;SDS011;34212;51.018;13.586;2023-05-29T14:24:31;7.40;;;2.88;;
43154;SDS011;34212;51.018;13.586;2023-05-29T14:34:34;4.70;;;2.80;;
43154;SDS011;34212;51.018;13.586;2023-05-29T14:44:37;9.63;;;3.45;;
43154;SDS011;34212;51.018;13.586;2023-05-29T14:59:42;6.10;;;3.20;;
43154;SDS011;34212;51.018;13.586;2023-05-29T15:14:47;4.55;;;2.90;;
43154;SDS011;34212;51.018;13.586;2023-05-29T15:19:48;4.93;;;3.22;;
43154;SDS011;34212;51.018;13.586;2023-05-29T15:24:50;5.78;;;3.10;;
43154;SDS011;34212;51.018;13.586;2023-05-29T15:34:53;4.68;;;2.72;;
43154;SDS011;34212;51.018;13.586;2023-05-29T15:49:58;11.18;;;3.25;;
43154;SDS011;34212;51.018;13.586;2023-05-29T15:54:59;5.28;;;3.38;;
43154;SDS011;34212;51.018;13.586;2023-05-29T16:00:04;5.03;;;3.13;;
43154;SDS011;34212;51.018;13.586;2023-05-29T16:05:10;7.10;;;3.10;;
43154;SDS011;34212;51.018;13.586;2023-05-29T16:10:12;5.32;;;3.42;;
43154;SDS011;34212;51.018;13.586;2023-05-29T16:15:17;7.30;;;3.50;;
43154;SDS011;34212;51.018;13.586;2023-05-29T16:20:20;4.13;;;3.10;;
43154;SDS011;34212;51.018;13.586;2023-05-29T16:25:23;8.35;;;4.38;;
43154;SDS011;34212;51.018;13.586;2023-05-29T16:30:25;6.82;;;3.00;;
43154;SDS011;34212;51.018;13.586;2023-05-29T16:35:26;5.78;;;3.10;;
43154;SDS011;34212;51.018;13.586;2023-05-29T16:40:28;6.43;;;3.13;;
43154;SDS011;34212;51.018;13.586;2023-05-29T16:50:31;6.00;;;3.05;;
43154;SDS011;34212;51.018;13.586;2023-05-29T16:55:32;4.05;;;2.78;;
43154;SDS011;34212;51.018;13.586;2023-05-29T17:00:34;7.32;;;3.38;;
43154;SDS011;34212;51.018;13.586;2023-05-29T17:10:37;7.40;;;3.35;;
43154;SDS011;34212;51.018;13.586;2023-05-29T17:15:39;8.13;;;3.53;;
43154;SDS011;34212;51.018;13.586;2023-05-29T17:20:41;6.47;;;3.30;;
43154;SDS011;34212;51.018;13.586;2023-05-29T17:25:43;10.23;;;3.30;;
43154;SDS011;34212;51.018;13.586;2023-05-29T17:35:46;5.07;;;3.10;;
43154;SDS011;34212;51.018;13.586;2023-05-29T17:40:48;7.28;;;2.97;;
43154;SDS011;34212;51.018;13.586;2023-05-29T17:50:53;6.22;;;3.53;;
43154;SDS011;34212;51.018;13.586;2023-05-29T17:56:04;4.88;;;3.13;;
43154;SDS011;34212;51.018;13.586;2023-05-29T18:01:05;5.00;;;2.83;;
43154;SDS011;34212;51.018;13.586;2023-05-29T18:06:07;5.78;;;3.15;;
43154;SDS011;34212;51.018;13.586;2023-05-29T18:11:09;4.80;;;2.88;;
43154;SDS011;34212;51.018;13.586;2023-05-29T18:16:10;5.22;;;3.15;;
43154;SDS011;34212;51.018;13.586;2023-05-29T18:21:12;8.23;;;4.03;;
